createdAt,value
2018-03-20T00:00:53.258Z,54.51
2018-03-20T00:03:23.147Z,54.51
2018-03-20T00:05:52.453Z,55.03
2018-03-20T00:08:21.553Z,55.07
2018-03-20T00:10:50.643Z,54.77
2018-03-20T00:13:19.765Z,54.11
2018-03-20T00:15:49.633Z,54.57
2018-03-20T00:18:18.725Z,54.83
2018-03-20T00:20:47.822Z,55.42
2018-03-20T00:23:16.919Z,55.59
2018-03-20T00:25:46.790Z,55.30
2018-03-20T00:28:15.906Z,55.47
2018-03-20T00:30:45.003Z,54.08
2018-03-20T00:33:14.123Z,54.28
2018-03-20T00:35:43.224Z,54.07
2018-03-20T00:38:12.330Z,53.79
2018-03-20T00:40:41.477Z,53.87
2018-03-20T00:43:10.566Z,54.00
2018-03-20T00:45:39.659Z,54.12
2018-03-20T00:48:08.766Z,55.02
2018-03-20T00:50:37.853Z,55.41
2018-03-20T00:53:06.967Z,55.71
2018-03-20T00:55:36.062Z,55.96
2018-03-20T00:58:05.195Z,56.59
2018-03-20T01:00:34.289Z,57.11
2018-03-20T01:03:03.417Z,56.56
2018-03-20T01:05:32.515Z,56.50
2018-03-20T01:08:02.374Z,56.60
2018-03-20T01:10:31.495Z,56.16
2018-03-20T01:13:00.591Z,56.71
2018-03-20T01:15:29.714Z,56.94
2018-03-20T01:17:59.558Z,57.76
2018-03-20T01:20:28.677Z,57.77
2018-03-20T01:22:57.823Z,58.60
2018-03-20T01:25:27.689Z,58.10
2018-03-20T01:27:57.550Z,58.29
2018-03-20T01:30:27.445Z,58.60
2018-03-20T01:32:56.566Z,58.23
2018-03-20T01:35:26.447Z,58.52
2018-03-20T01:37:55.530Z,58.76
2018-03-20T01:40:24.636Z,58.27
2018-03-20T01:42:53.755Z,58.34
2018-03-20T01:45:23.649Z,58.25
2018-03-20T01:47:52.754Z,58.41
2018-03-20T01:50:22.631Z,58.45
2018-03-20T02:06:25.564Z,56.19
2018-03-20T02:08:55.445Z,56.27
2018-03-20T02:11:24.534Z,57.09
2018-03-20T02:13:53.657Z,58.27
2018-03-20T02:16:22.774Z,58.35
2018-03-20T02:18:51.873Z,58.75
2018-03-20T02:21:21.751Z,58.83
2018-03-20T02:23:50.862Z,59.30
2018-03-20T02:26:20.735Z,59.53
2018-03-20T02:28:50.605Z,59.45
2018-03-20T02:31:20.475Z,59.88
2018-03-20T02:33:49.558Z,60.11
2018-03-20T02:36:18.680Z,59.94
2018-03-20T02:38:47.775Z,60.46
2018-03-20T02:41:16.883Z,60.43
2018-03-20T02:43:45.991Z,60.95
2018-03-20T02:46:22.456Z,60.95
2018-03-20T02:48:52.343Z,61.44
2018-03-20T02:51:21.450Z,61.20
2018-03-20T02:53:50.566Z,60.73
2018-03-20T02:56:20.430Z,60.87
2018-03-20T02:58:50.314Z,60.98
2018-03-20T03:01:19.406Z,61.82
2018-03-20T03:03:48.520Z,62.73
2018-03-20T03:06:17.616Z,62.22
2018-03-20T03:08:46.740Z,62.44
2018-03-20T03:11:15.842Z,62.62
2018-03-20T03:13:46.503Z,62.73
2018-03-20T03:16:15.586Z,62.95
2018-03-20T03:18:44.683Z,63.44
2018-03-20T03:21:13.802Z,63.29
2018-03-20T03:23:43.688Z,63.33
2018-03-20T03:26:12.794Z,63.44
2018-03-20T03:28:41.894Z,63.30
2018-03-20T03:31:11.027Z,63.26
2018-03-20T03:33:40.126Z,63.26
2018-03-20T03:36:09.243Z,63.92
2018-03-20T03:38:38.339Z,63.75
2018-03-20T03:41:07.469Z,64.55
2018-03-20T03:43:36.572Z,64.40
2018-03-20T03:46:06.442Z,64.79
2018-03-20T03:48:36.334Z,65.14
2018-03-20T03:51:05.433Z,64.73
2018-03-20T03:53:34.557Z,64.39
2018-03-20T03:56:03.665Z,64.94
2018-03-20T03:58:32.782Z,65.19
2018-03-20T04:01:01.895Z,65.30
2018-03-20T04:03:31.773Z,65.81
2018-03-20T04:06:00.870Z,65.79
2018-03-20T04:08:29.996Z,65.35
2018-03-20T04:10:59.920Z,64.98
2018-03-20T04:13:29.819Z,65.03
2018-03-20T04:15:58.911Z,65.05
2018-03-20T04:18:28.791Z,65.44
2018-03-20T04:20:57.908Z,65.52
2018-03-20T04:23:27.001Z,65.63
2018-03-20T04:25:56.134Z,66.13
2018-03-20T04:28:25.232Z,65.94
2018-03-20T04:30:55.116Z,66.62
2018-03-20T04:33:24.218Z,66.53
2018-03-20T04:35:53.342Z,66.75
2018-03-20T04:38:23.202Z,66.58
2018-03-20T04:40:52.323Z,66.18
2018-03-20T04:43:21.435Z,66.71
2018-03-20T04:45:51.347Z,66.49
2018-03-20T04:48:21.212Z,66.79
2018-03-20T04:50:50.341Z,66.30
2018-03-20T04:53:19.602Z,66.01
2018-03-20T04:55:48.716Z,65.95
2018-03-20T04:58:17.821Z,66.66
2018-03-20T05:00:46.929Z,66.49
2018-03-20T05:03:16.085Z,66.92
2018-03-20T05:05:45.951Z,66.53
2018-03-20T05:08:15.826Z,66.80
2018-03-20T05:10:44.938Z,65.95
2018-03-20T05:13:15.588Z,65.48
2018-03-20T05:15:44.710Z,66.33
2018-03-20T05:18:14.590Z,66.02
2018-03-20T05:20:44.633Z,65.72
2018-03-20T05:23:19.982Z,65.81
2018-03-20T05:25:49.853Z,66.10
2018-03-20T05:28:18.962Z,66.20
2018-03-20T05:30:48.114Z,66.18
2018-03-20T05:33:17.983Z,65.80
2018-03-20T05:35:47.093Z,66.01
2018-03-20T05:38:16.967Z,65.89
2018-03-20T05:40:46.097Z,65.74
2018-03-20T05:43:15.963Z,65.76
2018-03-20T05:45:45.097Z,65.18
2018-03-20T05:48:19.610Z,65.64
2018-03-20T05:51:00.149Z,65.87
2018-03-20T05:53:29.303Z,65.88
2018-03-20T05:55:58.427Z,66.41
2018-03-20T05:58:27.532Z,66.37
2018-03-20T06:00:56.627Z,66.30
2018-03-20T06:03:25.766Z,66.13
2018-03-20T06:05:54.871Z,66.13
2018-03-20T06:08:24.770Z,65.93
2018-03-20T06:10:54.649Z,65.79
2018-03-20T06:13:23.758Z,66.26
2018-03-20T06:15:52.856Z,65.97
2018-03-20T06:18:21.993Z,66.22
2018-03-20T06:20:51.094Z,65.99
2018-03-20T06:23:20.979Z,65.60
2018-03-20T06:25:50.102Z,65.25
2018-03-20T06:28:19.251Z,65.15
2018-03-20T06:30:48.351Z,64.82
2018-03-20T06:33:17.455Z,64.67
2018-03-20T06:35:47.345Z,64.27
2018-03-20T06:38:16.438Z,63.89
2018-03-20T06:40:45.554Z,63.70
2018-03-20T06:43:14.664Z,62.95
2018-03-20T06:45:43.794Z,64.10
2018-03-20T06:48:13.654Z,64.11
2018-03-20T06:50:42.778Z,64.07
2018-03-20T06:53:11.982Z,64.67
2018-03-20T06:55:41.107Z,64.59
2018-03-20T06:58:10.986Z,63.88
2018-03-20T07:00:41.589Z,63.19
2018-03-20T07:03:10.697Z,62.65
2018-03-20T07:05:39.799Z,62.27
2018-03-20T07:08:08.905Z,60.07
2018-03-20T07:10:37.997Z,60.07
2018-03-20T07:13:07.142Z,59.92
2018-03-20T07:15:36.229Z,59.04
2018-03-20T07:18:05.326Z,58.48
2018-03-20T07:20:34.438Z,58.23
2018-03-20T07:23:03.558Z,58.08
2018-03-20T07:25:33.436Z,57.44
2018-03-20T07:28:03.302Z,56.98
2018-03-20T07:30:32.413Z,57.77
2018-03-20T07:33:01.527Z,57.07
2018-03-20T07:35:31.419Z,55.91
2018-03-20T07:38:00.506Z,55.21
2018-03-20T07:40:29.647Z,55.04
2018-03-20T07:42:59.524Z,54.39
2018-03-20T07:45:28.649Z,54.02
2018-03-20T07:47:58.502Z,54.65
2018-03-20T07:50:27.611Z,54.91
2018-03-20T07:52:56.697Z,55.15
2018-03-20T07:55:25.828Z,54.97
2018-03-20T07:57:54.954Z,54.14
2018-03-20T08:00:24.829Z,53.92
2018-03-20T08:02:53.943Z,54.51
2018-03-20T08:05:23.039Z,54.56
2018-03-20T08:07:52.164Z,53.98
2018-03-20T08:10:22.057Z,53.45
2018-03-20T08:12:51.174Z,51.93
2018-03-20T08:15:21.027Z,52.25
2018-03-20T08:17:50.146Z,51.55
2018-03-20T08:20:19.255Z,51.84
2018-03-20T08:22:49.157Z,52.61
2018-03-20T08:25:18.246Z,52.03
2018-03-20T08:27:47.401Z,51.42
2018-03-20T08:30:16.490Z,50.53
2018-03-20T08:32:45.571Z,50.71
2018-03-20T08:35:15.449Z,50.76
2018-03-20T08:37:44.538Z,50.10
2018-03-20T08:40:13.647Z,49.34
2018-03-20T08:42:42.753Z,48.79
2018-03-20T08:45:11.870Z,48.62
2018-03-20T08:47:41.735Z,48.41
2018-03-20T08:50:10.850Z,48.93
2018-03-20T08:52:39.971Z,49.18
2018-03-20T08:55:09.075Z,48.56
2018-03-20T08:57:38.164Z,48.25
2018-03-20T09:00:08.062Z,47.45
2018-03-20T09:02:37.163Z,46.36
2018-03-20T09:05:06.282Z,47.11
2018-03-20T09:07:36.119Z,47.29
2018-03-20T09:10:05.262Z,46.46
2018-03-20T09:12:34.359Z,45.58
2018-03-20T09:15:03.507Z,46.91
2018-03-20T09:17:32.579Z,44.89
2018-03-20T09:20:01.690Z,45.38
2018-03-20T09:22:30.805Z,45.64
2018-03-20T09:24:59.883Z,45.13
2018-03-20T09:27:29.006Z,45.58
2018-03-20T09:29:58.094Z,45.09
2018-03-20T09:32:27.205Z,45.36
2018-03-20T09:34:56.290Z,44.90
2018-03-20T09:37:25.422Z,44.09
2018-03-20T09:39:54.507Z,43.05
2018-03-20T09:42:23.619Z,40.90
2018-03-20T09:44:53.494Z,41.27
2018-03-20T09:47:22.590Z,41.06
2018-03-20T09:49:51.683Z,42.64
2018-03-20T09:52:20.795Z,41.37
2018-03-20T09:54:49.923Z,40.96
2018-03-20T09:57:19.789Z,42.24
2018-03-20T09:59:48.926Z,43.78
2018-03-20T10:02:17.999Z,44.90
2018-03-20T10:04:47.140Z,41.24
2018-03-20T10:07:16.986Z,40.96
2018-03-20T10:09:46.114Z,41.66
2018-03-20T10:12:15.200Z,42.45
2018-03-20T10:14:44.433Z,41.86
2018-03-20T10:17:14.322Z,42.56
2018-03-20T10:19:43.414Z,41.69
2018-03-20T10:22:12.587Z,41.44
2018-03-20T10:24:41.688Z,41.33
2018-03-20T10:27:10.833Z,41.74
2018-03-20T10:29:39.905Z,42.21
2018-03-20T10:32:09.045Z,41.86
2018-03-20T10:34:38.102Z,38.72
2018-03-20T10:37:07.220Z,36.96
2018-03-20T10:39:37.118Z,37.40
2018-03-20T10:42:06.214Z,37.85
2018-03-20T10:44:35.293Z,39.73
2018-03-20T10:47:04.414Z,38.78
2018-03-20T10:49:34.268Z,39.92
2018-03-20T10:52:03.381Z,37.66
2018-03-20T10:54:32.464Z,37.78
2018-03-20T10:57:01.581Z,38.28
2018-03-20T10:59:31.452Z,39.05
2018-03-20T11:02:06.077Z,37.45
2018-03-20T11:04:35.216Z,37.39
2018-03-20T11:07:04.315Z,38.33
2018-03-20T11:09:33.436Z,39.20
2018-03-20T11:12:02.519Z,40.01
2018-03-20T11:14:31.649Z,40.58
2018-03-20T11:17:01.495Z,39.96
2018-03-20T11:19:30.614Z,39.30
2018-03-20T11:21:59.681Z,41.97
2018-03-20T11:24:28.803Z,42.75
2018-03-20T11:26:57.912Z,41.18
2018-03-20T11:29:27.014Z,41.85
2018-03-20T11:31:56.130Z,41.97
2018-03-20T11:34:25.997Z,43.43
2018-03-20T11:36:55.101Z,43.66
2018-03-20T11:39:24.969Z,44.37
2018-03-20T11:41:54.056Z,46.78
2018-03-20T11:44:23.160Z,51.01
2018-03-20T11:46:52.242Z,54.16
2018-03-20T11:49:22.118Z,56.68
2018-03-20T11:51:51.989Z,58.56
2018-03-20T11:54:21.135Z,60.13
2018-03-20T11:56:50.220Z,61.10
2018-03-20T11:59:19.334Z,62.08
2018-03-20T12:01:48.434Z,62.15
2018-03-20T12:04:17.517Z,62.14
2018-03-20T12:06:46.650Z,62.96
2018-03-20T12:09:33.738Z,64.00
2018-03-20T12:12:02.831Z,64.45
2018-03-20T12:14:31.936Z,64.19
2018-03-20T12:17:01.048Z,64.18
2018-03-20T12:19:30.926Z,63.70
2018-03-20T12:22:00.034Z,64.47
2018-03-20T12:24:29.142Z,64.41
2018-03-20T12:26:58.257Z,62.82
2018-03-20T12:29:28.152Z,63.61
2018-03-20T12:31:57.316Z,62.79
2018-03-20T12:34:27.176Z,62.31
2018-03-20T12:36:57.054Z,62.91
2018-03-20T12:39:26.185Z,62.81
2018-03-20T12:41:55.285Z,61.89
2018-03-20T12:44:25.154Z,62.33
2018-03-20T12:46:54.240Z,61.98
2018-03-20T12:49:23.353Z,62.24
2018-03-20T12:51:52.509Z,61.46
2018-03-20T12:54:22.368Z,61.90
2018-03-20T12:56:51.495Z,61.00
2018-03-20T12:59:20.622Z,62.11
2018-03-20T13:01:50.484Z,61.94
2018-03-20T13:04:19.570Z,61.08
2018-03-20T13:06:48.698Z,60.61
2018-03-20T13:09:17.816Z,61.34
2018-03-20T13:11:47.687Z,61.11
2018-03-20T13:14:16.825Z,61.32
2018-03-20T13:16:47.420Z,61.11
2018-03-20T13:19:16.579Z,60.93
2018-03-20T13:21:45.656Z,61.01
2018-03-20T13:24:15.501Z,60.26
2018-03-20T13:26:44.638Z,60.12
2018-03-20T13:29:13.809Z,59.96
2018-03-20T13:31:42.906Z,59.74
2018-03-20T13:34:12.018Z,58.62
2018-03-20T13:36:41.126Z,58.90
2018-03-20T13:39:10.258Z,59.50
2018-03-20T13:41:39.354Z,58.93
2018-03-20T13:44:08.481Z,59.50
2018-03-20T13:46:37.576Z,58.54
2018-03-20T13:49:07.849Z,58.47
2018-03-20T13:51:36.990Z,58.63
2018-03-20T13:54:06.114Z,58.96
2018-03-20T13:56:35.221Z,59.15
2018-03-20T13:59:04.366Z,58.86
2018-03-20T14:01:33.463Z,59.35
2018-03-20T14:04:02.625Z,60.11
2018-03-20T14:06:31.731Z,60.36
2018-03-20T14:09:01.627Z,60.15
2018-03-20T14:11:30.742Z,59.04
2018-03-20T14:13:59.896Z,59.34
2018-03-20T14:16:29.001Z,58.81
2018-03-20T14:18:58.096Z,59.05
2018-03-20T14:21:27.226Z,58.93
2018-03-20T14:23:57.086Z,58.26
2018-03-20T14:26:26.207Z,57.73
2018-03-20T14:28:55.312Z,57.91
2018-03-20T14:31:24.448Z,57.81
2018-03-20T14:33:54.302Z,58.23
2018-03-20T14:36:23.421Z,58.28
2018-03-20T14:38:52.499Z,58.15
2018-03-20T14:41:21.617Z,58.50
2018-03-20T14:43:51.480Z,58.53
2018-03-20T14:46:21.375Z,57.91
2018-03-20T14:48:51.230Z,58.39
2018-03-20T14:51:20.342Z,58.86
2018-03-20T14:53:49.449Z,58.61
2018-03-20T14:56:18.589Z,58.78
2018-03-20T14:58:47.692Z,58.24
2018-03-20T15:01:17.564Z,58.41
2018-03-20T15:03:47.462Z,59.54
2018-03-20T15:06:16.556Z,59.15
2018-03-20T15:08:45.696Z,59.18
2018-03-20T15:11:14.802Z,59.33
2018-03-20T15:13:43.912Z,59.51
2018-03-20T15:16:13.033Z,60.51
2018-03-20T15:18:42.154Z,61.14
2018-03-20T15:21:12.043Z,61.55
2018-03-20T15:23:41.126Z,61.72
2018-03-20T15:26:10.253Z,63.26
2018-03-20T15:28:39.376Z,67.84
2018-03-20T15:31:09.256Z,70.56
2018-03-20T15:33:38.363Z,71.47
2018-03-20T15:36:07.975Z,72.44
2018-03-20T15:38:37.840Z,73.27
2018-03-20T15:41:06.969Z,74.06
2018-03-20T15:43:36.068Z,74.06
2018-03-20T15:46:05.224Z,74.25
2018-03-20T15:48:34.354Z,74.47
2018-03-20T15:51:03.498Z,74.74
2018-03-20T15:53:32.622Z,74.31
2018-03-20T15:56:01.744Z,74.03
2018-03-20T15:58:30.843Z,73.82
2018-03-20T16:00:59.982Z,74.19
2018-03-20T16:03:29.851Z,73.74
2018-03-20T16:05:58.982Z,74.02
2018-03-20T16:08:28.900Z,74.49
2018-03-20T16:10:58.797Z,74.76
2018-03-20T16:13:27.885Z,74.88
2018-03-20T16:15:57.021Z,74.22
2018-03-20T16:18:26.142Z,73.81
2018-03-20T16:20:55.255Z,73.91
2018-03-20T16:23:24.357Z,72.69
2018-03-20T16:25:54.237Z,72.65
2018-03-20T16:28:23.350Z,72.72
2018-03-20T16:30:52.461Z,72.32
2018-03-20T16:33:21.571Z,72.40
2018-03-20T16:35:50.671Z,71.31
2018-03-20T16:38:19.782Z,71.63
2018-03-20T16:40:49.666Z,71.31
2018-03-20T16:43:18.804Z,70.83
2018-03-20T16:45:53.294Z,70.52
2018-03-20T16:48:27.966Z,70.48
2018-03-20T16:51:02.655Z,70.50
2018-03-20T16:53:40.146Z,70.10
2018-03-20T16:56:09.255Z,69.63
2018-03-20T16:58:39.154Z,70.08
2018-03-20T17:01:08.267Z,69.50
2018-03-20T17:03:37.478Z,69.60
2018-03-20T17:06:07.353Z,70.54
2018-03-20T17:08:36.459Z,70.22
2018-03-20T17:11:06.439Z,69.90
2018-03-20T17:13:35.567Z,69.99
2018-03-20T17:16:04.656Z,70.49
2018-03-20T17:18:33.824Z,70.72
2018-03-20T17:21:03.677Z,71.18
2018-03-20T17:23:32.772Z,71.42
2018-03-20T17:26:02.394Z,71.59
2018-03-20T17:28:31.501Z,70.53
2018-03-20T17:31:01.416Z,70.27
2018-03-20T17:33:30.524Z,70.18
2018-03-20T17:35:59.651Z,70.58
2018-03-20T17:38:28.807Z,71.34
2018-03-20T17:40:57.929Z,71.25
2018-03-20T17:43:27.814Z,71.32
2018-03-20T17:45:57.718Z,70.91
2018-03-20T17:48:26.820Z,70.68
2018-03-20T17:50:56.718Z,70.89
2018-03-20T17:53:25.815Z,70.71
2018-03-20T17:55:54.935Z,70.83
2018-03-20T17:58:24.819Z,70.83
2018-03-20T18:00:53.972Z,70.79
2018-03-20T18:03:23.816Z,71.29
2018-03-20T18:05:52.932Z,71.31
2018-03-20T18:08:22.067Z,71.25
2018-03-20T18:10:51.957Z,71.53
2018-03-20T18:13:21.063Z,71.74
2018-03-20T18:15:50.188Z,71.94
2018-03-20T18:18:19.278Z,72.01
2018-03-20T18:20:48.406Z,71.90
2018-03-20T18:23:17.518Z,71.83
2018-03-20T18:25:46.646Z,72.21
2018-03-20T18:28:16.550Z,72.08
2018-03-20T18:30:45.661Z,72.33
2018-03-20T18:33:16.389Z,72.39
2018-03-20T18:35:46.277Z,72.54
2018-03-20T18:38:15.405Z,72.42
2018-03-20T18:40:45.278Z,72.54
2018-03-20T18:43:14.378Z,72.91
2018-03-20T18:45:43.528Z,72.49
2018-03-20T18:48:12.655Z,72.23
2018-03-20T18:50:41.803Z,72.40
2018-03-20T18:53:11.691Z,72.37
2018-03-20T18:55:40.798Z,72.66
2018-03-20T18:58:10.707Z,72.98
2018-03-20T19:00:39.790Z,72.79
2018-03-20T19:03:08.915Z,72.46
2018-03-20T19:05:38.816Z,72.66
2018-03-20T19:08:07.939Z,72.53
2018-03-20T19:10:37.833Z,72.05
2018-03-20T19:13:06.962Z,72.02
2018-03-20T19:15:36.867Z,71.73
2018-03-20T19:18:07.475Z,71.53
2018-03-20T19:20:36.564Z,71.57
2018-03-20T19:23:05.700Z,71.95
2018-03-20T19:25:34.849Z,72.00
2018-03-20T19:28:04.032Z,71.82
2018-03-20T19:30:33.179Z,71.91
2018-03-20T19:33:03.079Z,71.00
2018-03-20T19:35:32.975Z,70.92
2018-03-20T19:38:02.101Z,70.11
2018-03-20T19:40:31.989Z,70.47
2018-03-20T19:43:01.106Z,70.18
2018-03-20T19:45:31.007Z,69.56
2018-03-20T19:48:00.152Z,69.21
2018-03-20T19:50:29.262Z,69.44
2018-03-20T19:52:58.394Z,69.71
2018-03-20T19:55:28.236Z,69.64
2018-03-20T19:57:57.368Z,68.88
2018-03-20T20:00:26.498Z,67.22
2018-03-20T20:02:55.648Z,66.91
2018-03-20T20:05:24.789Z,67.48
2018-03-20T20:07:53.918Z,67.16
2018-03-20T20:10:23.813Z,67.60
2018-03-20T20:12:52.937Z,67.46
2018-03-20T20:15:22.043Z,68.11
2018-03-20T20:17:51.205Z,68.09
2018-03-20T20:20:20.335Z,67.91
2018-03-20T20:22:49.515Z,67.23
2018-03-20T20:25:20.241Z,67.16
2018-03-20T20:27:50.140Z,67.16
2018-03-20T20:30:19.277Z,67.77
2018-03-20T20:32:48.388Z,67.33
2018-03-20T20:35:17.519Z,67.17
2018-03-20T20:37:46.618Z,66.81
2018-03-20T20:40:15.750Z,66.28
2018-03-20T20:42:45.625Z,66.60
2018-03-20T20:45:14.773Z,67.02
2018-03-20T20:47:43.899Z,66.54
2018-03-20T20:50:12.983Z,66.30
2018-03-20T20:52:42.083Z,67.16
2018-03-20T20:55:11.234Z,67.38
2018-03-20T20:57:41.090Z,67.46
2018-03-20T21:00:10.226Z,67.98
2018-03-20T21:02:39.431Z,68.01
2018-03-20T21:05:08.551Z,68.31
2018-03-20T21:07:37.705Z,68.66
2018-03-20T21:10:06.845Z,69.22
2018-03-20T21:12:36.708Z,68.95
2018-03-20T21:15:05.866Z,69.16
2018-03-20T21:17:34.973Z,69.25
2018-03-20T21:20:04.109Z,68.99
2018-03-20T21:22:33.195Z,68.94
2018-03-20T21:25:02.311Z,70.25
2018-03-20T21:27:31.433Z,69.63
2018-03-20T21:30:01.303Z,69.42
2018-03-20T21:32:31.165Z,70.41
2018-03-20T21:35:00.309Z,69.96
2018-03-20T21:37:29.389Z,70.34
2018-03-20T21:39:58.486Z,70.58
2018-03-20T21:42:27.595Z,70.90
2018-03-20T21:44:56.787Z,70.43
2018-03-20T21:47:25.939Z,70.45
2018-03-20T21:49:55.860Z,70.76
2018-03-20T21:52:25.751Z,70.58
2018-03-20T21:54:55.649Z,70.97
2018-03-20T21:57:24.746Z,70.81
2018-03-20T21:59:53.851Z,71.00
2018-03-20T22:02:22.991Z,70.68
2018-03-20T22:04:52.072Z,70.80
2018-03-20T22:07:21.950Z,71.06
2018-03-20T22:09:51.046Z,71.07
2018-03-20T22:12:20.148Z,71.39
2018-03-20T22:14:49.268Z,71.43
2018-03-20T22:17:19.138Z,71.86
2018-03-20T22:19:48.246Z,71.23
2018-03-20T22:22:17.331Z,71.38
2018-03-20T22:24:46.458Z,71.54
2018-03-20T22:27:16.310Z,71.56
2018-03-20T22:29:45.418Z,71.90
2018-03-20T22:32:14.526Z,72.48
2018-03-20T22:34:43.629Z,72.59
2018-03-20T22:37:12.700Z,72.39
2018-03-20T22:39:41.845Z,72.25
2018-03-20T22:42:10.922Z,72.63
2018-03-20T22:44:40.049Z,73.24
2018-03-20T22:47:09.160Z,73.00
2018-03-20T22:49:39.039Z,73.05
2018-03-20T22:52:08.147Z,72.97
2018-03-20T22:54:38.026Z,73.14
2018-03-20T22:57:07.137Z,72.96
2018-03-20T22:59:36.231Z,73.14
2018-03-20T23:02:05.345Z,72.98
2018-03-20T23:04:34.441Z,73.10
2018-03-20T23:07:03.549Z,73.26
2018-03-20T23:09:33.410Z,73.51
2018-03-20T23:12:02.538Z,73.69
2018-03-20T23:14:31.618Z,73.48
2018-03-20T23:17:00.733Z,73.07
2018-03-20T23:19:29.835Z,73.32
2018-03-20T23:21:58.946Z,72.98
2018-03-20T23:24:28.890Z,72.85
2018-03-20T23:26:58.738Z,73.09
2018-03-20T23:29:27.848Z,72.87
2018-03-20T23:31:56.973Z,72.77
2018-03-20T23:34:26.925Z,72.78
2018-03-20T23:36:56.003Z,72.79
2018-03-20T23:39:25.128Z,72.88
2018-03-20T23:41:54.219Z,73.07
2018-03-20T23:44:23.355Z,73.31
2018-03-20T23:46:53.231Z,73.12
2018-03-20T23:49:22.353Z,73.16
2018-03-20T23:51:51.434Z,73.27
2018-03-20T23:54:20.547Z,73.02
2018-03-20T23:56:49.629Z,73.08
2018-03-20T23:59:18.747Z,73.20
